Terminal Aerodrome Forecast
Issued by NWS

Current Version | Previous Version | Text Only | Print | Product List | Glossary On
Versions: 1 2 3 4 5 6 7 8 9 10 11 12 13 14
000
FTUS46 KSEW 040500
TAFPAE
TAF
KPAE 040520Z 0406/0506 35004KT P6SM SKC
     FM041500 17009KT P6SM FEW012 BKN250
     FM041800 19013KT P6SM SCT028 SCT080 BKN250
     FM042100 21015G22KT P6SM SCT035 SCT080 SCT250=

USA.gov is the U.S. government's official web portal to all federal, state and local government web resources and services.